sensor_id;sensor_type;location;lat;lon;timestamp;pressure;altitude;pressure_sealevel;temperature;humidity
56594;BME280;42474;51.660;5.824;2024-01-07T00:00:32;1016.1;;;2.3;85
56594;BME280;42474;51.660;5.824;2024-01-07T00:04:32;1016.1;;;2.3;85
56594;BME280;42474;51.660;5.824;2024-01-07T00:08:32;1016.1;;;2.3;85
56594;BME280;42474;51.660;5.824;2024-01-07T00:12:32;1016.2;;;2.3;85
56594;BME280;42474;51.660;5.824;2024-01-07T00:16:32;1016.2;;;2.3;85
56594;BME280;42474;51.660;5.824;2024-01-07T00:20:32;1016.3;;;2.3;85
56594;BME280;42474;51.660;5.824;2024-01-07T00:24:32;1016.3;;;2.3;85
56594;BME280;42474;51.660;5.824;2024-01-07T00:28:32;1016.3;;;2.3;85
56594;BME280;42474;51.660;5.824;2024-01-07T00:32:32;1016.4;;;2.3;85
56594;BME280;42474;51.660;5.824;2024-01-07T00:36:32;1016.4;;;2.3;85.5
56594;BME280;42474;51.660;5.824;2024-01-07T00:40:32;1016.4;;;2.2;86
56594;BME280;42474;51.660;5.824;2024-01-07T00:44:32;1016.5;;;2.2;86.5
56594;BME280;42474;51.660;5.824;2024-01-07T00:48:32;1016.5;;;2.2;86.5
56594;BME280;42474;51.660;5.824;2024-01-07T00:52:32;1016.5;;;2.2;87
56594;BME280;42474;51.660;5.824;2024-01-07T00:56:32;1016.6;;;2.1;87.5
56594;BME280;42474;51.660;5.824;2024-01-07T01:00:32;1016.6;;;2;88.5
56594;BME280;42474;51.660;5.824;2024-01-07T01:04:32;1016.6;;;1.9;89
56594;BME280;42474;51.660;5.824;2024-01-07T01:08:32;1016.7;;;1.9;89.5
56594;BME280;42474;51.660;5.824;2024-01-07T01:12:32;1016.7;;;1.8;90.5
56594;BME280;42474;51.660;5.824;2024-01-07T01:16:32;1016.8;;;1.8;91
56594;BME280;42474;51.660;5.824;2024-01-07T01:20:32;1016.8;;;1.8;91
56594;BME280;42474;51.660;5.824;2024-01-07T01:24:32;1016.8;;;1.9;91.5
56594;BME280;42474;51.660;5.824;2024-01-07T01:28:32;1016.9;;;1.9;91.5
56594;BME280;42474;51.660;5.824;2024-01-07T01:32:32;1016.9;;;1.9;91
56594;BME280;42474;51.660;5.824;2024-01-07T01:36:32;1016.9;;;1.9;91
56594;BME280;42474;51.660;5.824;2024-01-07T01:40:32;1017;;;1.9;90.5
56594;BME280;42474;51.660;5.824;2024-01-07T01:44:32;1017.1;;;1.9;90.5
56594;BME280;42474;51.660;5.824;2024-01-07T01:48:32;1017.1;;;2;90.5
56594;BME280;42474;51.660;5.824;2024-01-07T01:52:32;1017.1;;;2;90.5
56594;BME280;42474;51.660;5.824;2024-01-07T01:56:32;1017.2;;;2;90.5
56594;BME280;42474;51.660;5.824;2024-01-07T02:00:32;1017.2;;;2;90
56594;BME280;42474;51.660;5.824;2024-01-07T02:04:32;1017.2;;;2;90
56594;BME280;42474;51.660;5.824;2024-01-07T02:08:32;1017.3;;;2;90
56594;BME280;42474;51.660;5.824;2024-01-07T02:12:32;1017.3;;;2;89.5
56594;BME280;42474;51.660;5.824;2024-01-07T02:16:32;1017.3;;;2;89
56594;BME280;42474;51.660;5.824;2024-01-07T02:20:32;1017.3;;;2;89
56594;BME280;42474;51.660;5.824;2024-01-07T02:24:32;1017.3;;;2.1;89
56594;BME280;42474;51.660;5.824;2024-01-07T02:28:33;1017.3;;;2.1;88.5
56594;BME280;42474;51.660;5.824;2024-01-07T02:32:32;1017.4;;;2.1;88
56594;BME280;42474;51.660;5.824;2024-01-07T02:36:32;1017.4;;;2.1;87.5
56594;BME280;42474;51.660;5.824;2024-01-07T02:40:32;1017.5;;;2;87.5
56594;BME280;42474;51.660;5.824;2024-01-07T02:44:32;1017.5;;;2;87.5
56594;BME280;42474;51.660;5.824;2024-01-07T02:48:32;1017.5;;;2;88
56594;BME280;42474;51.660;5.824;2024-01-07T02:52:32;1017.6;;;1.9;88
56594;BME280;42474;51.660;5.824;2024-01-07T02:56:32;1017.6;;;1.9;88.5
56594;BME280;42474;51.660;5.824;2024-01-07T03:00:32;1017.6;;;1.9;89
56594;BME280;42474;51.660;5.824;2024-01-07T03:04:32;1017.7;;;1.9;89.5
56594;BME280;42474;51.660;5.824;2024-01-07T03:08:32;1017.7;;;1.8;89
56594;BME280;42474;51.660;5.824;2024-01-07T03:12:32;1017.8;;;1.8;89.5
56594;BME280;42474;51.660;5.824;2024-01-07T03:16:32;1017.7;;;1.8;88.5
56594;BME280;42474;51.660;5.824;2024-01-07T03:20:32;1017.8;;;1.8;88.5
56594;BME280;42474;51.660;5.824;2024-01-07T03:24:32;1017.8;;;1.7;88.5
56594;BME280;42474;51.660;5.824;2024-01-07T03:28:32;1017.8;;;1.8;87.5
56594;BME280;42474;51.660;5.824;2024-01-07T03:32:32;1017.8;;;1.8;87.5
56594;BME280;42474;51.660;5.824;2024-01-07T03:36:32;1017.9;;;1.8;87
56594;BME280;42474;51.660;5.824;2024-01-07T03:40:32;1017.9;;;1.8;87
56594;BME280;42474;51.660;5.824;2024-01-07T03:44:32;1017.9;;;1.9;87
56594;BME280;42474;51.660;5.824;2024-01-07T03:48:32;1017.9;;;1.8;87.5
56594;BME280;42474;51.660;5.824;2024-01-07T03:52:32;1018;;;1.8;87
56594;BME280;42474;51.660;5.824;2024-01-07T03:56:32;1018;;;1.8;86.5
56594;BME280;42474;51.660;5.824;2024-01-07T04:00:33;1018;;;1.8;86.5
56594;BME280;42474;51.660;5.824;2024-01-07T04:04:32;1018;;;1.8;87
56594;BME280;42474;51.660;5.824;2024-01-07T04:08:32;1018.1;;;1.7;86.5
56594;BME280;42474;51.660;5.824;2024-01-07T04:12:32;1018.1;;;1.7;86
56594;BME280;42474;51.660;5.824;2024-01-07T04:16:32;1018.2;;;1.7;86
56594;BME280;42474;51.660;5.824;2024-01-07T04:20:32;1018.2;;;1.7;86
56594;BME280;42474;51.660;5.824;2024-01-07T04:24:32;1018.3;;;1.7;86
56594;BME280;42474;51.660;5.824;2024-01-07T04:28:32;1018.3;;;1.7;85
56594;BME280;42474;51.660;5.824;2024-01-07T04:32:32;1018.4;;;1.6;85.5
56594;BME280;42474;51.660;5.824;2024-01-07T04:36:32;1018.5;;;1.6;85.5
56594;BME280;42474;51.660;5.824;2024-01-07T04:40:32;1018.4;;;1.6;86
56594;BME280;42474;51.660;5.824;2024-01-07T04:44:32;1018.5;;;1.6;86
56594;BME280;42474;51.660;5.824;2024-01-07T04:48:32;1018.5;;;1.6;85.5
56594;BME280;42474;51.660;5.824;2024-01-07T04:52:32;1018.6;;;1.5;86.5
56594;BME280;42474;51.660;5.824;2024-01-07T04:56:33;1018.6;;;1.5;86.5
56594;BME280;42474;51.660;5.824;2024-01-07T05:00:32;1018.7;;;1.4;86.5
56594;BME280;42474;51.660;5.824;2024-01-07T05:04:32;1018.7;;;1.5;86.5
56594;BME280;42474;51.660;5.824;2024-01-07T05:08:32;1018.7;;;1.5;86.5
56594;BME280;42474;51.660;5.824;2024-01-07T05:12:32;1018.8;;;1.5;86.5
56594;BME280;42474;51.660;5.824;2024-01-07T05:16:32;1018.9;;;1.4;86
56594;BME280;42474;51.660;5.824;2024-01-07T05:20:32;1018.9;;;1.5;86
56594;BME280;42474;51.660;5.824;2024-01-07T05:24:32;1019;;;1.5;86
56594;BME280;42474;51.660;5.824;2024-01-07T05:28:32;1019;;;1.5;85.5
56594;BME280;42474;51.660;5.824;2024-01-07T05:32:32;1019.1;;;1.5;85.5
56594;BME280;42474;51.660;5.824;2024-01-07T05:36:32;1019.1;;;1.5;85
56594;BME280;42474;51.660;5.824;2024-01-07T05:40:32;1019.2;;;1.5;85.5
56594;BME280;42474;51.660;5.824;2024-01-07T05:44:32;1019.2;;;1.5;85.5
56594;BME280;42474;51.660;5.824;2024-01-07T05:48:40;1019.3;;;1.4;85.5
56594;BME280;42474;51.660;5.824;2024-01-07T05:52:32;1019.3;;;1.4;86
56594;BME280;42474;51.660;5.824;2024-01-07T05:56:32;1019.3;;;1.4;85.5
56594;BME280;42474;51.660;5.824;2024-01-07T06:00:32;1019.3;;;1.3;86
56594;BME280;42474;51.660;5.824;2024-01-07T06:04:32;1019.4;;;1.3;86
56594;BME280;42474;51.660;5.824;2024-01-07T06:08:33;1019.4;;;1.3;86
56594;BME280;42474;51.660;5.824;2024-01-07T06:12:32;1019.5;;;1.3;85.5
56594;BME280;42474;51.660;5.824;2024-01-07T06:16:32;1019.5;;;1.3;86
56594;BME280;42474;51.660;5.824;2024-01-07T06:20:32;1019.6;;;1.3;86
56594;BME280;42474;51.660;5.824;2024-01-07T06:24:32;1019.7;;;1.3;85.5
56594;BME280;42474;51.660;5.824;2024-01-07T06:28:32;1019.8;;;1.2;85.5
56594;BME280;42474;51.660;5.824;2024-01-07T06:32:32;1019.9;;;1.3;85.5
56594;BME280;42474;51.660;5.824;2024-01-07T06:36:32;1019.9;;;1.3;84.5
56594;BME280;42474;51.660;5.824;2024-01-07T06:40:32;1019.9;;;1.2;84.5
56594;BME280;42474;51.660;5.824;2024-01-07T06:44:32;1020;;;1.2;84.5
56594;BME280;42474;51.660;5.824;2024-01-07T06:48:32;1020.1;;;1.1;84.5
56594;BME280;42474;51.660;5.824;2024-01-07T06:52:32;1020.1;;;1.1;84
56594;BME280;42474;51.660;5.824;2024-01-07T06:56:32;1020.2;;;1.1;84.5
56594;BME280;42474;51.660;5.824;2024-01-07T07:00:32;1020.2;;;1.1;84
56594;BME280;42474;51.660;5.824;2024-01-07T07:04:32;1020.3;;;1.1;83.5
56594;BME280;42474;51.660;5.824;2024-01-07T07:08:32;1020.3;;;1.1;83
56594;BME280;42474;51.660;5.824;2024-01-07T07:12:32;1020.4;;;1.1;83.5
56594;BME280;42474;51.660;5.824;2024-01-07T07:16:32;1020.5;;;1.1;83.5
56594;BME280;42474;51.660;5.824;2024-01-07T07:20:32;1020.6;;;1.1;83
56594;BME280;42474;51.660;5.824;2024-01-07T07:24:32;1020.6;;;1.1;83.5
56594;BME280;42474;51.660;5.824;2024-01-07T07:28:32;1020.7;;;1.1;84
56594;BME280;42474;51.660;5.824;2024-01-07T07:32:32;1020.7;;;1.1;84
56594;BME280;42474;51.660;5.824;2024-01-07T07:36:32;1020.8;;;1.1;84
56594;BME280;42474;51.660;5.824;2024-01-07T07:40:32;1020.9;;;1.1;84
56594;BME280;42474;51.660;5.824;2024-01-07T07:44:32;1021;;;1.1;84.5
56594;BME280;42474;51.660;5.824;2024-01-07T07:48:32;1021;;;1.1;84
56594;BME280;42474;51.660;5.824;2024-01-07T07:52:32;1021.1;;;1.1;83.5
56594;BME280;42474;51.660;5.824;2024-01-07T07:56:32;1021.1;;;1.1;83
56594;BME280;42474;51.660;5.824;2024-01-07T08:00:32;1021.1;;;1.1;83.5
56594;BME280;42474;51.660;5.824;2024-01-07T08:04:32;1021.2;;;1;83.5
56594;BME280;42474;51.660;5.824;2024-01-07T08:08:32;1021.2;;;1;83
56594;BME280;42474;51.660;5.824;2024-01-07T08:12:32;1021.3;;;1;82.5
56594;BME280;42474;51.660;5.824;2024-01-07T08:16:33;1021.4;;;1;83
56594;BME280;42474;51.660;5.824;2024-01-07T08:20:33;1021.4;;;1;82.5
56594;BME280;42474;51.660;5.824;2024-01-07T08:24:32;1021.4;;;1;82
56594;BME280;42474;51.660;5.824;2024-01-07T08:28:32;1021.4;;;1;82
56594;BME280;42474;51.660;5.824;2024-01-07T08:32:33;1021.5;;;0.9;82
56594;BME280;42474;51.660;5.824;2024-01-07T08:36:33;1021.6;;;0.9;82
56594;BME280;42474;51.660;5.824;2024-01-07T08:40:32;1021.6;;;0.9;82
56594;BME280;42474;51.660;5.824;2024-01-07T08:48:33;1021.7;;;0.9;81.5
56594;BME280;42474;51.660;5.824;2024-01-07T08:52:33;1021.8;;;0.9;82
56594;BME280;42474;51.660;5.824;2024-01-07T08:56:33;1021.8;;;0.9;81
56594;BME280;42474;51.660;5.824;2024-01-07T09:00:33;1021.9;;;0.8;82
56594;BME280;42474;51.660;5.824;2024-01-07T09:04:33;1021.9;;;0.8;81.5
56594;BME280;42474;51.660;5.824;2024-01-07T09:08:33;1022;;;0.8;82
56594;BME280;42474;51.660;5.824;2024-01-07T09:12:33;1022.1;;;0.8;82.5
56594;BME280;42474;51.660;5.824;2024-01-07T09:16:33;1022.2;;;0.8;83.5
56594;BME280;42474;51.660;5.824;2024-01-07T09:20:33;1022.3;;;0.8;84
56594;BME280;42474;51.660;5.824;2024-01-07T09:24:33;1022.4;;;0.8;84
56594;BME280;42474;51.660;5.824;2024-01-07T09:28:33;1022.4;;;0.7;83.5
56594;BME280;42474;51.660;5.824;2024-01-07T09:32:33;1022.4;;;0.7;82.5
56594;BME280;42474;51.660;5.824;2024-01-07T09:36:33;1022.5;;;0.7;82.5
56594;BME280;42474;51.660;5.824;2024-01-07T09:40:33;1022.5;;;0.7;82
56594;BME280;42474;51.660;5.824;2024-01-07T09:44:33;1022.6;;;0.8;81.5
56594;BME280;42474;51.660;5.824;2024-01-07T09:48:33;1022.6;;;0.8;81.5
56594;BME280;42474;51.660;5.824;2024-01-07T09:52:33;1022.7;;;0.9;81
56594;BME280;42474;51.660;5.824;2024-01-07T09:56:34;1022.7;;;0.8;80
56594;BME280;42474;51.660;5.824;2024-01-07T10:00:33;1022.8;;;0.8;80
56594;BME280;42474;51.660;5.824;2024-01-07T10:04:33;1022.8;;;0.8;79.5
56594;BME280;42474;51.660;5.824;2024-01-07T10:08:33;1022.9;;;0.8;80
56594;BME280;42474;51.660;5.824;2024-01-07T10:12:33;1022.8;;;0.8;80.5
56594;BME280;42474;51.660;5.824;2024-01-07T10:16:33;1022.9;;;0.8;79.5
56594;BME280;42474;51.660;5.824;2024-01-07T10:20:33;1022.9;;;0.8;79.5
56594;BME280;42474;51.660;5.824;2024-01-07T10:24:36;1022.9;;;0.9;79.5
56594;BME280;42474;51.660;5.824;2024-01-07T10:28:33;1023;;;0.9;79
56594;BME280;42474;51.660;5.824;2024-01-07T10:32:34;1023;;;0.9;78.5
56594;BME280;42474;51.660;5.824;2024-01-07T10:36:33;1023;;;0.9;79
56594;BME280;42474;51.660;5.824;2024-01-07T10:40:33;1023;;;1;79
56594;BME280;42474;51.660;5.824;2024-01-07T10:44:33;1023;;;1;78
56594;BME280;42474;51.660;5.824;2024-01-07T10:48:33;1023;;;1;77
56594;BME280;42474;51.660;5.824;2024-01-07T10:52:33;1023;;;0.9;77.5
56594;BME280;42474;51.660;5.824;2024-01-07T10:56:33;1023;;;1;78.5
56594;BME280;42474;51.660;5.824;2024-01-07T11:00:33;1023;;;0.9;78
56594;BME280;42474;51.660;5.824;2024-01-07T11:04:37;1023.1;;;1;78
56594;BME280;42474;51.660;5.824;2024-01-07T11:08:34;1023.1;;;1;77.5
56594;BME280;42474;51.660;5.824;2024-01-07T11:12:33;1023.2;;;0.9;77.5
56594;BME280;42474;51.660;5.824;2024-01-07T11:16:40;1023.2;;;1;78
56594;BME280;42474;51.660;5.824;2024-01-07T11:20:33;1023.3;;;1;78
56594;BME280;42474;51.660;5.824;2024-01-07T11:24:37;1023.3;;;1.1;77
56594;BME280;42474;51.660;5.824;2024-01-07T11:32:33;1023.3;;;1.2;75.5
56594;BME280;42474;51.660;5.824;2024-01-07T11:36:33;1023.3;;;1.2;76
56594;BME280;42474;51.660;5.824;2024-01-07T11:40:33;1023.3;;;1.2;75.5
56594;BME280;42474;51.660;5.824;2024-01-07T11:44:34;1023.3;;;1.2;74
56594;BME280;42474;51.660;5.824;2024-01-07T11:48:33;1023.3;;;1.2;74
56594;BME280;42474;51.660;5.824;2024-01-07T11:52:34;1023.3;;;1.2;74
56594;BME280;42474;51.660;5.824;2024-01-07T11:56:33;1023.3;;;1.2;74.5
56594;BME280;42474;51.660;5.824;2024-01-07T12:00:33;1023.3;;;1.3;74.5
56594;BME280;42474;51.660;5.824;2024-01-07T12:04:33;1023.3;;;1.4;74
56594;BME280;42474;51.660;5.824;2024-01-07T12:08:33;1023.3;;;1.4;74
56594;BME280;42474;51.660;5.824;2024-01-07T12:12:33;1023.3;;;1.5;74.5
56594;BME280;42474;51.660;5.824;2024-01-07T12:16:33;1023.4;;;1.5;74.5
56594;BME280;42474;51.660;5.824;2024-01-07T12:20:33;1023.4;;;1.6;72
56594;BME280;42474;51.660;5.824;2024-01-07T12:24:33;1023.4;;;1.5;73
56594;BME280;42474;51.660;5.824;2024-01-07T12:28:33;1023.5;;;1.6;73
56594;BME280;42474;51.660;5.824;2024-01-07T12:32:33;1023.4;;;1.5;70.5
56594;BME280;42474;51.660;5.824;2024-01-07T12:36:33;1023.5;;;1.4;70
56594;BME280;42474;51.660;5.824;2024-01-07T12:40:33;1023.5;;;1.3;70
56594;BME280;42474;51.660;5.824;2024-01-07T12:44:33;1023.5;;;1.3;70
56594;BME280;42474;51.660;5.824;2024-01-07T12:48:33;1023.6;;;1.3;69
56594;BME280;42474;51.660;5.824;2024-01-07T12:52:33;1023.6;;;1.3;69
56594;BME280;42474;51.660;5.824;2024-01-07T12:56:33;1023.6;;;1.3;68
56594;BME280;42474;51.660;5.824;2024-01-07T13:00:33;1023.7;;;1.1;67.5
56594;BME280;42474;51.660;5.824;2024-01-07T13:04:33;1023.7;;;1;68
56594;BME280;42474;51.660;5.824;2024-01-07T13:08:33;1023.7;;;0.9;68.5
56594;BME280;42474;51.660;5.824;2024-01-07T13:12:33;1023.7;;;1;67.5
56594;BME280;42474;51.660;5.824;2024-01-07T13:16:33;1023.8;;;1.1;68
56594;BME280;42474;51.660;5.824;2024-01-07T13:20:33;1023.9;;;1.1;66
56594;BME280;42474;51.660;5.824;2024-01-07T13:24:33;1024;;;1.1;66.5
56594;BME280;42474;51.660;5.824;2024-01-07T13:28:33;1024;;;1.3;67
56594;BME280;42474;51.660;5.824;2024-01-07T13:32:33;1024;;;1.4;66
56594;BME280;42474;51.660;5.824;2024-01-07T13:36:33;1024.2;;;1.5;65.5
56594;BME280;42474;51.660;5.824;2024-01-07T13:40:33;1024.2;;;1.6;64
56594;BME280;42474;51.660;5.824;2024-01-07T13:44:33;1024.2;;;1.3;64
56594;BME280;42474;51.660;5.824;2024-01-07T13:48:33;1024.3;;;1.1;65.5
56594;BME280;42474;51.660;5.824;2024-01-07T13:52:33;1024.3;;;0.9;67
56594;BME280;42474;51.660;5.824;2024-01-07T13:56:33;1024.3;;;0.9;67
56594;BME280;42474;51.660;5.824;2024-01-07T14:00:33;1024.4;;;0.9;66.5
56594;BME280;42474;51.660;5.824;2024-01-07T14:04:33;1024.5;;;0.9;65.5
56594;BME280;42474;51.660;5.824;2024-01-07T14:08:33;1024.5;;;0.8;65
56594;BME280;42474;51.660;5.824;2024-01-07T14:12:33;1024.6;;;0.6;65
56594;BME280;42474;51.660;5.824;2024-01-07T14:16:33;1024.5;;;0.5;66
56594;BME280;42474;51.660;5.824;2024-01-07T14:20:33;1024.6;;;0.5;67.5
56594;BME280;42474;51.660;5.824;2024-01-07T14:24:33;1024.7;;;0.5;65.5
56594;BME280;42474;51.660;5.824;2024-01-07T14:28:33;1024.7;;;0.5;65.5
56594;BME280;42474;51.660;5.824;2024-01-07T14:32:33;1024.8;;;0.4;66
56594;BME280;42474;51.660;5.824;2024-01-07T14:36:33;1024.9;;;0.3;65.5
56594;BME280;42474;51.660;5.824;2024-01-07T14:40:33;1024.9;;;0.3;66
56594;BME280;42474;51.660;5.824;2024-01-07T14:44:33;1025;;;0.3;67
56594;BME280;42474;51.660;5.824;2024-01-07T14:48:33;1025;;;0.3;67
56594;BME280;42474;51.660;5.824;2024-01-07T14:52:33;1025.1;;;0.2;67.5
56594;BME280;42474;51.660;5.824;2024-01-07T14:56:33;1025.1;;;0.2;68
56594;BME280;42474;51.660;5.824;2024-01-07T15:00:33;1025.2;;;0.2;68
56594;BME280;42474;51.660;5.824;2024-01-07T15:04:33;1025.2;;;0.2;68.5
56594;BME280;42474;51.660;5.824;2024-01-07T15:08:33;1025.3;;;0.3;66.5
56594;BME280;42474;51.660;5.824;2024-01-07T15:12:33;1025.3;;;0.3;67
56594;BME280;42474;51.660;5.824;2024-01-07T15:16:34;1025.3;;;0.3;66.5
56594;BME280;42474;51.660;5.824;2024-01-07T15:20:33;1025.3;;;0.2;66.5
56594;BME280;42474;51.660;5.824;2024-01-07T15:24:33;1025.5;;;0.2;67
56594;BME280;42474;51.660;5.824;2024-01-07T15:28:33;1025.5;;;0.3;66
56594;BME280;42474;51.660;5.824;2024-01-07T15:32:33;1025.6;;;0.2;67
56594;BME280;42474;51.660;5.824;2024-01-07T15:36:33;1025.6;;;0.2;67.5
56594;BME280;42474;51.660;5.824;2024-01-07T15:40:33;1025.7;;;0.2;68
56594;BME280;42474;51.660;5.824;2024-01-07T15:44:33;1025.8;;;0.1;68.5
56594;BME280;42474;51.660;5.824;2024-01-07T15:48:33;1025.8;;;0.1;69
56594;BME280;42474;51.660;5.824;2024-01-07T15:52:33;1025.8;;;0.1;68.5
56594;BME280;42474;51.660;5.824;2024-01-07T15:56:33;1025.8;;;0.1;69
56594;BME280;42474;51.660;5.824;2024-01-07T16:00:33;1025.9;;;0.1;68.5
56594;BME280;42474;51.660;5.824;2024-01-07T16:04:33;1025.9;;;0.1;69
56594;BME280;42474;51.660;5.824;2024-01-07T16:08:33;1026;;;0;69.5
56594;BME280;42474;51.660;5.824;2024-01-07T16:12:33;1026.1;;;0;68
56594;BME280;42474;51.660;5.824;2024-01-07T16:16:33;1026.1;;;0.1;68
56594;BME280;42474;51.660;5.824;2024-01-07T16:20:33;1026.1;;;0.1;68.5
56594;BME280;42474;51.660;5.824;2024-01-07T16:24:33;1026.2;;;0;68.5
56594;BME280;42474;51.660;5.824;2024-01-07T16:28:33;1026.3;;;0;68.5
56594;BME280;42474;51.660;5.824;2024-01-07T16:32:33;1026.3;;;0;69.5
56594;BME280;42474;51.660;5.824;2024-01-07T16:36:33;1026.3;;;0;70
56594;BME280;42474;51.660;5.824;2024-01-07T16:40:34;1026.5;;;0;70
56594;BME280;42474;51.660;5.824;2024-01-07T16:44:33;1026.5;;;0;69
56594;BME280;42474;51.660;5.824;2024-01-07T16:48:33;1026.5;;;0;69.5
56594;BME280;42474;51.660;5.824;2024-01-07T16:52:33;1026.6;;;0;70.5
56594;BME280;42474;51.660;5.824;2024-01-07T16:56:33;1026.6;;;-0.1;71
56594;BME280;42474;51.660;5.824;2024-01-07T17:00:33;1026.7;;;-0.1;71
56594;BME280;42474;51.660;5.824;2024-01-07T17:04:33;1026.8;;;0;71
56594;BME280;42474;51.660;5.824;2024-01-07T17:08:33;1026.8;;;-0.1;71
56594;BME280;42474;51.660;5.824;2024-01-07T17:12:33;1026.9;;;-0.1;71
56594;BME280;42474;51.660;5.824;2024-01-07T17:16:33;1026.9;;;-0.1;71.5
56594;BME280;42474;51.660;5.824;2024-01-07T17:20:33;1026.9;;;-0.1;71
56594;BME280;42474;51.660;5.824;2024-01-07T17:24:33;1026.9;;;-0.2;71.5
56594;BME280;42474;51.660;5.824;2024-01-07T17:28:33;1027;;;-0.1;72
56594;BME280;42474;51.660;5.824;2024-01-07T17:32:33;1027;;;-0.2;71.5
56594;BME280;42474;51.660;5.824;2024-01-07T17:36:33;1027;;;-0.1;71.5
56594;BME280;42474;51.660;5.824;2024-01-07T17:40:33;1027.1;;;-0.2;72
56594;BME280;42474;51.660;5.824;2024-01-07T17:44:33;1027.2;;;-0.2;72
56594;BME280;42474;51.660;5.824;2024-01-07T17:48:33;1027.2;;;-0.2;72.5
56594;BME280;42474;51.660;5.824;2024-01-07T17:52:33;1027.2;;;-0.2;73
56594;BME280;42474;51.660;5.824;2024-01-07T17:56:33;1027.2;;;-0.3;73.5
56594;BME280;42474;51.660;5.824;2024-01-07T18:00:33;1027.2;;;-0.4;74
56594;BME280;42474;51.660;5.824;2024-01-07T18:04:33;1027.3;;;-0.4;74
56594;BME280;42474;51.660;5.824;2024-01-07T18:08:33;1027.3;;;-0.4;74.5
56594;BME280;42474;51.660;5.824;2024-01-07T18:12:33;1027.3;;;-0.5;74.5
56594;BME280;42474;51.660;5.824;2024-01-07T18:16:33;1027.4;;;-0.5;74.5
56594;BME280;42474;51.660;5.824;2024-01-07T18:20:33;1027.4;;;-0.5;75
56594;BME280;42474;51.660;5.824;2024-01-07T18:24:33;1027.5;;;-0.5;75
56594;BME280;42474;51.660;5.824;2024-01-07T18:28:33;1027.5;;;-0.5;75.5
56594;BME280;42474;51.660;5.824;2024-01-07T18:32:33;1027.6;;;-0.5;75.5
56594;BME280;42474;51.660;5.824;2024-01-07T18:36:33;1027.6;;;-0.5;76
56594;BME280;42474;51.660;5.824;2024-01-07T18:40:33;1027.7;;;-0.5;76
56594;BME280;42474;51.660;5.824;2024-01-07T18:44:33;1027.7;;;-0.5;76
56594;BME280;42474;51.660;5.824;2024-01-07T18:48:33;1027.7;;;-0.6;76.5
56594;BME280;42474;51.660;5.824;2024-01-07T18:52:33;1027.7;;;-0.6;76.5
56594;BME280;42474;51.660;5.824;2024-01-07T18:56:33;1027.8;;;-0.6;76.5
56594;BME280;42474;51.660;5.824;2024-01-07T19:00:33;1027.8;;;-0.6;77
56594;BME280;42474;51.660;5.824;2024-01-07T19:04:33;1027.9;;;-0.6;77
56594;BME280;42474;51.660;5.824;2024-01-07T19:08:33;1028;;;-0.6;77.5
56594;BME280;42474;51.660;5.824;2024-01-07T19:12:33;1028;;;-0.6;77.5
56594;BME280;42474;51.660;5.824;2024-01-07T19:16:33;1028;;;-0.7;78
56594;BME280;42474;51.660;5.824;2024-01-07T19:20:33;1028.1;;;-0.7;78
56594;BME280;42474;51.660;5.824;2024-01-07T19:24:35;1028.1;;;-0.7;78
56594;BME280;42474;51.660;5.824;2024-01-07T19:28:33;1028.2;;;-0.7;78.5
56594;BME280;42474;51.660;5.824;2024-01-07T19:32:33;1028.2;;;-0.7;78.5
56594;BME280;42474;51.660;5.824;2024-01-07T19:36:33;1028.2;;;-0.8;78.5
56594;BME280;42474;51.660;5.824;2024-01-07T19:40:33;1028.2;;;-0.7;79
56594;BME280;42474;51.660;5.824;2024-01-07T19:44:33;1028.2;;;-0.7;78.5
56594;BME280;42474;51.660;5.824;2024-01-07T19:48:33;1028.2;;;-0.7;79
56594;BME280;42474;51.660;5.824;2024-01-07T19:52:33;1028.3;;;-0.7;79
56594;BME280;42474;51.660;5.824;2024-01-07T19:56:33;1028.2;;;-0.8;79.5
56594;BME280;42474;51.660;5.824;2024-01-07T20:00:33;1028.2;;;-0.8;80
56594;BME280;42474;51.660;5.824;2024-01-07T20:04:33;1028.3;;;-0.8;80
56594;BME280;42474;51.660;5.824;2024-01-07T20:08:33;1028.3;;;-0.9;80.5
56594;BME280;42474;51.660;5.824;2024-01-07T20:12:33;1028.3;;;-0.8;80.5
56594;BME280;42474;51.660;5.824;2024-01-07T20:16:33;1028.3;;;-0.8;80.5
56594;BME280;42474;51.660;5.824;2024-01-07T20:20:33;1028.3;;;-0.8;80
56594;BME280;42474;51.660;5.824;2024-01-07T20:24:33;1028.3;;;-0.8;80.5
56594;BME280;42474;51.660;5.824;2024-01-07T20:28:33;1028.3;;;-0.9;80.5
56594;BME280;42474;51.660;5.824;2024-01-07T20:32:33;1028.4;;;-0.9;80.5
56594;BME280;42474;51.660;5.824;2024-01-07T20:36:33;1028.4;;;-0.9;80
56594;BME280;42474;51.660;5.824;2024-01-07T20:40:33;1028.4;;;-0.9;80
56594;BME280;42474;51.660;5.824;2024-01-07T20:44:33;1028.5;;;-0.9;80
56594;BME280;42474;51.660;5.824;2024-01-07T20:48:33;1028.5;;;-1;80
56594;BME280;42474;51.660;5.824;2024-01-07T20:52:33;1028.5;;;-1;80.5
56594;BME280;42474;51.660;5.824;2024-01-07T20:56:33;1028.4;;;-1;80.5
56594;BME280;42474;51.660;5.824;2024-01-07T21:00:33;1028.5;;;-1.1;80
56594;BME280;42474;51.660;5.824;2024-01-07T21:04:33;1028.5;;;-1.1;80
56594;BME280;42474;51.660;5.824;2024-01-07T21:08:33;1028.5;;;-1.1;80
56594;BME280;42474;51.660;5.824;2024-01-07T21:12:33;1028.5;;;-1.1;80
56594;BME280;42474;51.660;5.824;2024-01-07T21:16:33;1028.5;;;-1.1;80.5
56594;BME280;42474;51.660;5.824;2024-01-07T21:20:34;1028.5;;;-1.1;80.5
56594;BME280;42474;51.660;5.824;2024-01-07T21:24:33;1028.6;;;-1.2;80.5
56594;BME280;42474;51.660;5.824;2024-01-07T21:28:33;1028.6;;;-1.2;80.5
56594;BME280;42474;51.660;5.824;2024-01-07T21:32:33;1028.6;;;-1.2;80
56594;BME280;42474;51.660;5.824;2024-01-07T21:36:33;1028.6;;;-1.1;79.5
56594;BME280;42474;51.660;5.824;2024-01-07T21:40:33;1028.6;;;-1.1;79
56594;BME280;42474;51.660;5.824;2024-01-07T21:44:33;1028.6;;;-1.1;79
56594;BME280;42474;51.660;5.824;2024-01-07T21:48:33;1028.6;;;-1.1;79
56594;BME280;42474;51.660;5.824;2024-01-07T21:52:33;1028.6;;;-1;78.5
56594;BME280;42474;51.660;5.824;2024-01-07T21:56:33;1028.7;;;-1.1;78.5
56594;BME280;42474;51.660;5.824;2024-01-07T22:00:33;1028.7;;;-1.1;78
56594;BME280;42474;51.660;5.824;2024-01-07T22:04:33;1028.7;;;-1;77.5
56594;BME280;42474;51.660;5.824;2024-01-07T22:08:33;1028.7;;;-1.1;77.5
56594;BME280;42474;51.660;5.824;2024-01-07T22:12:33;1028.8;;;-1;78
56594;BME280;42474;51.660;5.824;2024-01-07T22:16:33;1028.8;;;-1.1;76.5
56594;BME280;42474;51.660;5.824;2024-01-07T22:20:33;1028.9;;;-1.1;76.5
56594;BME280;42474;51.660;5.824;2024-01-07T22:24:33;1028.9;;;-1.1;76.5
56594;BME280;42474;51.660;5.824;2024-01-07T22:28:33;1029;;;-1;75
56594;BME280;42474;51.660;5.824;2024-01-07T22:32:33;1029;;;-1.1;72.5
56594;BME280;42474;51.660;5.824;2024-01-07T22:36:33;1029;;;-1.2;72
56594;BME280;42474;51.660;5.824;2024-01-07T22:40:33;1029;;;-1.2;71.5
56594;BME280;42474;51.660;5.824;2024-01-07T22:44:34;1029;;;-1.3;71
56594;BME280;42474;51.660;5.824;2024-01-07T22:48:33;1029;;;-1.2;70.5
56594;BME280;42474;51.660;5.824;2024-01-07T22:52:33;1029;;;-1.4;71
56594;BME280;42474;51.660;5.824;2024-01-07T22:56:33;1029;;;-1.5;71.5
56594;BME280;42474;51.660;5.824;2024-01-07T23:04:33;1029;;;-1.5;72
56594;BME280;42474;51.660;5.824;2024-01-07T23:08:33;1029.1;;;-1.5;72.5
56594;BME280;42474;51.660;5.824;2024-01-07T23:12:33;1029;;;-1.4;71.5
56594;BME280;42474;51.660;5.824;2024-01-07T23:16:33;1029.1;;;-1.5;72.5